Terminal Aerodrome Forecast
Issued by NWS

Home | Current Version | Previous Version | Graphics & Text | Print | Product List | Glossary On
Versions: 1 2 3 4 5 6 7 8 9 10 11 12 13 14 15 16 17
000
FTUS43 KFGF 181500 AAA
TAFBJI
TAF AMD
KBJI 181558Z 1816/1912 12004KT P6SM SKC
     FM181830 14005KT P6SM BKN015
      TEMPO 1819/1822 3SM -SN OVC015
     FM190500 16006KT P6SM OVC009=

USA.gov is the U.S. government's official web portal to all federal, state and local government web resources and services.